sensor_id;sensor_type;location;lat;lon;timestamp;pressure;altitude;pressure_sealevel;temperature
15453;BMP280;7827;53.594;9.938;2023-09-30T00:00:08;31370.50;;;-135.29
15453;BMP280;7827;53.594;9.938;2023-09-30T00:02:39;31362.75;;;-135.29
15453;BMP280;7827;53.594;9.938;2023-09-30T00:05:09;31238.88;;;-135.29
15453;BMP280;7827;53.594;9.938;2023-09-30T00:07:37;31428.56;;;-135.29
15453;BMP280;7827;53.594;9.938;2023-09-30T00:10:07;31428.56;;;-135.29
15453;BMP280;7827;53.594;9.938;2023-09-30T00:12:37;31457.59;;;-135.29
15453;BMP280;7827;53.594;9.938;2023-09-30T00:15:06;31393.72;;;-135.29
15453;BMP280;7827;53.594;9.938;2023-09-30T00:17:35;31446.00;;;-135.29
15453;BMP280;7827;53.594;9.938;2023-09-30T00:20:05;31341.47;;;-135.29
15453;BMP280;7827;53.594;9.938;2023-09-30T00:22:34;31411.16;;;-135.29
15453;BMP280;7827;53.594;9.938;2023-09-30T00:25:03;31535.03;;;-135.29
15453;BMP280;7827;53.594;9.938;2023-09-30T00:27:31;31494.38;;;-135.29
15453;BMP280;7827;53.594;9.938;2023-09-30T00:30:02;31513.75;;;-135.29
15453;BMP280;7827;53.594;9.938;2023-09-30T00:32:30;31595.06;;;-135.29
15453;BMP280;7827;53.594;9.938;2023-09-30T00:35:02;31542.78;;;-135.29
15453;BMP280;7827;53.594;9.938;2023-09-30T00:37:30;31655.06;;;-135.29
15453;BMP280;7827;53.594;9.938;2023-09-30T00:39:59;31604.72;;;-135.29
15453;BMP280;7827;53.594;9.938;2023-09-30T00:42:28;31449.88;;;-135.29
15453;BMP280;7827;53.594;9.938;2023-09-30T00:44:57;31554.41;;;-135.29
15453;BMP280;7827;53.594;9.938;2023-09-30T00:47:27;31782.84;;;-135.29
15453;BMP280;7827;53.594;9.938;2023-09-30T00:49:56;31763.47;;;-135.29
15453;BMP280;7827;53.594;9.938;2023-09-30T00:52:26;31519.56;;;-135.29
15453;BMP280;7827;53.594;9.938;2023-09-30T00:54:55;31436.31;;;-135.29
15453;BMP280;7827;53.594;9.938;2023-09-30T00:57:25;31496.31;;;-135.29
15453;BMP280;7827;53.594;9.938;2023-09-30T00:59:55;31581.50;;;-135.29
15453;BMP280;7827;53.594;9.938;2023-09-30T01:02:23;31591.19;;;-135.29
15453;BMP280;7827;53.594;9.938;2023-09-30T01:04:55;31529.22;;;-135.29
15453;BMP280;7827;53.594;9.938;2023-09-30T01:07:23;31670.56;;;-135.29
15453;BMP280;7827;53.594;9.938;2023-09-30T01:09:52;31597.00;;;-135.29
15453;BMP280;7827;53.594;9.938;2023-09-30T01:12:21;31782.84;;;-135.29
15453;BMP280;7827;53.594;9.938;2023-09-30T01:14:49;31689.91;;;-135.29
15453;BMP280;7827;53.594;9.938;2023-09-30T01:17:18;31717.03;;;-135.29
15453;BMP280;7827;53.594;9.938;2023-09-30T01:19:47;31620.22;;;-135.29
15453;BMP280;7827;53.594;9.938;2023-09-30T01:22:18;31641.50;;;-135.29
15453;BMP280;7827;53.594;9.938;2023-09-30T01:24:47;31631.84;;;-135.29
15453;BMP280;7827;53.594;9.938;2023-09-30T01:27:15;31647.31;;;-135.29
15453;BMP280;7827;53.594;9.938;2023-09-30T01:29:45;31790.59;;;-135.29
15453;BMP280;7827;53.594;9.938;2023-09-30T01:32:15;31624.09;;;-135.29
15453;BMP280;7827;53.594;9.938;2023-09-30T01:34:44;31732.50;;;-135.29
15453;BMP280;7827;53.594;9.938;2023-09-30T01:37:12;31701.53;;;-135.29
15453;BMP280;7827;53.594;9.938;2023-09-30T01:39:43;31744.13;;;-135.29
15453;BMP280;7827;53.594;9.938;2023-09-30T01:42:12;31902.88;;;-135.29
15453;BMP280;7827;53.594;9.938;2023-09-30T01:44:40;31689.91;;;-135.29
15453;BMP280;7827;53.594;9.938;2023-09-30T01:47:09;31817.69;;;-135.29
15453;BMP280;7827;53.594;9.938;2023-09-30T01:49:39;31627.97;;;-135.29
15453;BMP280;7827;53.594;9.938;2023-09-30T01:52:07;31879.66;;;-135.29
15453;BMP280;7827;53.594;9.938;2023-09-30T01:54:35;31825.44;;;-135.29
15453;BMP280;7827;53.594;9.938;2023-09-30T01:57:05;31823.50;;;-135.29
15453;BMP280;7827;53.594;9.938;2023-09-30T01:59:34;31854.47;;;-135.29
15453;BMP280;7827;53.594;9.938;2023-09-30T02:02:02;31821.56;;;-135.29
15453;BMP280;7827;53.594;9.938;2023-09-30T02:04:31;31813.81;;;-135.29
15453;BMP280;7827;53.594;9.938;2023-09-30T02:06:59;32030.66;;;-135.29
15453;BMP280;7827;53.594;9.938;2023-09-30T02:09:28;31860.28;;;-135.29
15453;BMP280;7827;53.594;9.938;2023-09-30T02:11:56;31899.00;;;-135.29
15453;BMP280;7827;53.594;9.938;2023-09-30T02:14:26;31953.22;;;-135.29
15453;BMP280;7827;53.594;9.938;2023-09-30T02:16:54;32048.09;;;-135.29
15453;BMP280;7827;53.594;9.938;2023-09-30T02:19:24;32055.84;;;-135.29
15453;BMP280;7827;53.594;9.938;2023-09-30T02:21:57;31846.72;;;-135.29
15453;BMP280;7827;53.594;9.938;2023-09-30T02:24:26;31875.78;;;-135.29
15453;BMP280;7827;53.594;9.938;2023-09-30T02:26:54;32069.38;;;-135.29
15453;BMP280;7827;53.594;9.938;2023-09-30T02:29:23;32166.19;;;-135.29
15453;BMP280;7827;53.594;9.938;2023-09-30T02:31:54;32024.84;;;-135.29
15453;BMP280;7827;53.594;9.938;2023-09-30T02:34:22;32013.25;;;-135.29
15453;BMP280;7827;53.594;9.938;2023-09-30T02:36:51;32065.53;;;-135.29
15453;BMP280;7827;53.594;9.938;2023-09-30T02:39:22;32061.66;;;-135.29
15453;BMP280;7827;53.594;9.938;2023-09-30T02:41:52;32038.41;;;-135.29
15453;BMP280;7827;53.594;9.938;2023-09-30T02:44:21;32224.28;;;-135.29
15453;BMP280;7827;53.594;9.938;2023-09-30T02:46:49;32022.91;;;-135.29
15453;BMP280;7827;53.594;9.938;2023-09-30T02:49:19;32092.63;;;-135.29
15453;BMP280;7827;53.594;9.938;2023-09-30T02:51:47;32050.03;;;-135.29
15453;BMP280;7827;53.594;9.938;2023-09-30T02:54:16;32048.09;;;-135.29
15453;BMP280;7827;53.594;9.938;2023-09-30T02:56:45;31999.69;;;-135.29
15453;BMP280;7827;53.594;9.938;2023-09-30T02:59:13;32026.78;;;-135.29
15453;BMP280;7827;53.594;9.938;2023-09-30T03:01:43;32112.00;;;-135.29
15453;BMP280;7827;53.594;9.938;2023-09-30T03:04:12;32123.59;;;-135.29
15453;BMP280;7827;53.594;9.938;2023-09-30T03:06:41;32181.69;;;-135.29
15453;BMP280;7827;53.594;9.938;2023-09-30T03:09:11;32168.13;;;-135.29
15453;BMP280;7827;53.594;9.938;2023-09-30T03:11:42;32315.31;;;-135.29
15453;BMP280;7827;53.594;9.938;2023-09-30T03:14:11;32212.69;;;-135.29
15453;BMP280;7827;53.594;9.938;2023-09-30T03:16:40;32189.44;;;-135.29
15453;BMP280;7827;53.594;9.938;2023-09-30T03:19:10;32274.63;;;-135.29
15453;BMP280;7827;53.594;9.938;2023-09-30T03:21:38;32100.38;;;-135.29
15453;BMP280;7827;53.594;9.938;2023-09-30T03:24:09;32127.47;;;-135.29
15453;BMP280;7827;53.594;9.938;2023-09-30T03:26:38;32294.00;;;-135.29
15453;BMP280;7827;53.594;9.938;2023-09-30T03:29:09;32195.25;;;-135.29
15453;BMP280;7827;53.594;9.938;2023-09-30T03:31:38;32154.59;;;-135.29
15453;BMP280;7827;53.594;9.938;2023-09-30T03:34:06;32264.97;;;-135.29
15453;BMP280;7827;53.594;9.938;2023-09-30T03:36:35;32294.00;;;-135.29
15453;BMP280;7827;53.594;9.938;2023-09-30T03:39:04;32270.75;;;-135.29
15453;BMP280;7827;53.594;9.938;2023-09-30T03:41:36;32228.16;;;-135.29
15453;BMP280;7827;53.594;9.938;2023-09-30T03:44:05;32266.91;;;-135.29
15453;BMP280;7827;53.594;9.938;2023-09-30T03:46:33;32179.75;;;-135.29
15453;BMP280;7827;53.594;9.938;2023-09-30T03:49:02;32317.25;;;-135.29
15453;BMP280;7827;53.594;9.938;2023-09-30T03:51:30;32112.00;;;-135.29
15453;BMP280;7827;53.594;9.938;2023-09-30T03:53:59;32232.03;;;-135.29
15453;BMP280;7827;53.594;9.938;2023-09-30T03:56:30;32199.13;;;-135.29
15453;BMP280;7827;53.594;9.938;2023-09-30T03:59:00;32261.09;;;-135.29
15453;BMP280;7827;53.594;9.938;2023-09-30T04:01:28;32235.91;;;-135.29
15453;BMP280;7827;53.594;9.938;2023-09-30T04:03:58;32429.56;;;-135.29
15453;BMP280;7827;53.594;9.938;2023-09-30T04:06:27;32170.06;;;-135.29
15453;BMP280;7827;53.594;9.938;2023-09-30T04:08:56;32315.31;;;-135.29
15453;BMP280;7827;53.594;9.938;2023-09-30T04:11:26;32282.38;;;-135.29
15453;BMP280;7827;53.594;9.938;2023-09-30T04:13:54;32301.75;;;-135.29
15453;BMP280;7827;53.594;9.938;2023-09-30T04:16:24;32388.88;;;-135.29
15453;BMP280;7827;53.594;9.938;2023-09-30T04:18:56;32290.13;;;-135.29
15453;BMP280;7827;53.594;9.938;2023-09-30T04:21:24;32328.84;;;-135.29
15453;BMP280;7827;53.594;9.938;2023-09-30T04:23:54;32208.81;;;-135.29
15453;BMP280;7827;53.594;9.938;2023-09-30T04:26:23;32268.81;;;-135.29
15453;BMP280;7827;53.594;9.938;2023-09-30T04:28:52;32323.03;;;-135.29
15453;BMP280;7827;53.594;9.938;2023-09-30T04:31:22;32193.31;;;-135.29
15453;BMP280;7827;53.594;9.938;2023-09-30T04:33:52;32270.75;;;-135.29
15453;BMP280;7827;53.594;9.938;2023-09-30T04:36:21;32228.16;;;-135.29
15453;BMP280;7827;53.594;9.938;2023-09-30T04:38:50;32348.22;;;-135.29
15453;BMP280;7827;53.594;9.938;2023-09-30T04:41:19;32220.41;;;-135.29
15453;BMP280;7827;53.594;9.938;2023-09-30T04:43:48;32162.34;;;-135.29
15453;BMP280;7827;53.594;9.938;2023-09-30T04:46:17;32479.91;;;-135.29
15453;BMP280;7827;53.594;9.938;2023-09-30T04:48:47;32311.44;;;-135.29
15453;BMP280;7827;53.594;9.938;2023-09-30T04:51:17;32255.28;;;-135.29
15453;BMP280;7827;53.594;9.938;2023-09-30T04:53:46;32216.53;;;-135.29
15453;BMP280;7827;53.594;9.938;2023-09-30T04:56:14;32425.69;;;-135.29
15453;BMP280;7827;53.594;9.938;2023-09-30T04:58:43;32309.50;;;-135.29
15453;BMP280;7827;53.594;9.938;2023-09-30T05:01:11;32340.47;;;-135.29
15453;BMP280;7827;53.594;9.938;2023-09-30T05:03:39;32348.22;;;-135.29
15453;BMP280;7827;53.594;9.938;2023-09-30T05:06:08;32270.75;;;-135.29
15453;BMP280;7827;53.594;9.938;2023-09-30T05:08:38;32433.44;;;-135.29
15453;BMP280;7827;53.594;9.938;2023-09-30T05:11:06;32410.19;;;-135.29
15453;BMP280;7827;53.594;9.938;2023-09-30T05:13:35;32381.13;;;-135.29
15453;BMP280;7827;53.594;9.938;2023-09-30T05:16:03;32381.13;;;-135.29
15453;BMP280;7827;53.594;9.938;2023-09-30T05:18:33;32336.59;;;-135.29
15453;BMP280;7827;53.594;9.938;2023-09-30T05:21:01;32150.72;;;-135.29
15453;BMP280;7827;53.594;9.938;2023-09-30T05:23:30;32255.28;;;-135.29
15453;BMP280;7827;53.594;9.938;2023-09-30T05:26:01;32224.28;;;-135.29
15453;BMP280;7827;53.594;9.938;2023-09-30T05:28:29;32261.09;;;-135.29
15453;BMP280;7827;53.594;9.938;2023-09-30T05:30:58;32212.69;;;-135.29
15453;BMP280;7827;53.594;9.938;2023-09-30T05:33:27;32212.69;;;-135.29
15453;BMP280;7827;53.594;9.938;2023-09-30T05:35:56;32235.91;;;-135.29
15453;BMP280;7827;53.594;9.938;2023-09-30T05:38:24;32253.34;;;-135.29
15453;BMP280;7827;53.594;9.938;2023-09-30T05:40:53;32117.78;;;-135.29
15453;BMP280;7827;53.594;9.938;2023-09-30T05:43:23;32294.00;;;-135.29
15453;BMP280;7827;53.594;9.938;2023-09-30T05:45:51;32061.66;;;-135.29
15453;BMP280;7827;53.594;9.938;2023-09-30T05:48:25;32133.28;;;-135.29
15453;BMP280;7827;53.594;9.938;2023-09-30T05:50:53;32034.53;;;-135.29
15453;BMP280;7827;53.594;9.938;2023-09-30T05:53:22;32090.69;;;-135.29
15453;BMP280;7827;53.594;9.938;2023-09-30T05:55:53;32028.72;;;-135.29
15453;BMP280;7827;53.594;9.938;2023-09-30T05:58:22;32247.53;;;-135.29
15453;BMP280;7827;53.594;9.938;2023-09-30T06:00:51;32187.50;;;-135.29
15453;BMP280;7827;53.594;9.938;2023-09-30T06:03:20;31941.59;;;-135.29
15453;BMP280;7827;53.594;9.938;2023-09-30T06:05:49;32154.59;;;-135.29
15453;BMP280;7827;53.594;9.938;2023-09-30T06:08:18;32193.31;;;-135.29
15453;BMP280;7827;53.594;9.938;2023-09-30T06:10:46;32019.06;;;-135.29
15453;BMP280;7827;53.594;9.938;2023-09-30T06:13:14;32108.13;;;-135.29
15453;BMP280;7827;53.594;9.938;2023-09-30T06:15:46;32110.06;;;-135.29
15453;BMP280;7827;53.594;9.938;2023-09-30T06:18:14;31957.09;;;-135.29
15453;BMP280;7827;53.594;9.938;2023-09-30T06:20:42;32115.88;;;-135.29
15453;BMP280;7827;53.594;9.938;2023-09-30T06:23:11;31951.28;;;-135.29
15453;BMP280;7827;53.594;9.938;2023-09-30T06:25:39;31906.75;;;-135.29
15453;BMP280;7827;53.594;9.938;2023-09-30T06:28:08;32036.47;;;-135.29
15453;BMP280;7827;53.594;9.938;2023-09-30T06:30:36;32104.25;;;-135.29
15453;BMP280;7827;53.594;9.938;2023-09-30T06:33:06;31972.59;;;-135.29
15453;BMP280;7827;53.594;9.938;2023-09-30T06:35:36;32019.06;;;-135.29
15453;BMP280;7827;53.594;9.938;2023-09-30T06:38:17;31964.84;;;-135.29
15453;BMP280;7827;53.594;9.938;2023-09-30T06:40:46;32034.53;;;-135.29
15453;BMP280;7827;53.594;9.938;2023-09-30T06:43:15;31986.13;;;-135.29
15453;BMP280;7827;53.594;9.938;2023-09-30T06:45:43;31778.97;;;-135.29
15453;BMP280;7827;53.594;9.938;2023-09-30T06:48:15;31895.13;;;-135.29
15453;BMP280;7827;53.594;9.938;2023-09-30T06:50:45;32042.28;;;-135.29
15453;BMP280;7827;53.594;9.938;2023-09-30T06:53:15;31875.78;;;-135.29
15453;BMP280;7827;53.594;9.938;2023-09-30T06:55:45;31748.00;;;-135.29
15453;BMP280;7827;53.594;9.938;2023-09-30T06:58:13;31887.38;;;-135.29
15453;BMP280;7827;53.594;9.938;2023-09-30T07:00:46;31535.03;;;-135.29
15453;BMP280;7827;53.594;9.938;2023-09-30T07:03:17;31728.63;;;-135.29
15453;BMP280;7827;53.594;9.938;2023-09-30T07:05:50;31784.78;;;-135.29
15453;BMP280;7827;53.594;9.938;2023-09-30T07:08:19;31538.91;;;-135.29
15453;BMP280;7827;53.594;9.938;2023-09-30T07:10:48;31519.56;;;-135.29
15453;BMP280;7827;53.594;9.938;2023-09-30T07:13:17;31362.75;;;-135.29
15453;BMP280;7827;53.594;9.938;2023-09-30T07:15:45;31384.06;;;-135.29
15453;BMP280;7827;53.594;9.938;2023-09-30T07:18:13;31314.38;;;-135.29
15453;BMP280;7827;53.594;9.938;2023-09-30T07:20:43;31463.41;;;-135.29
15453;BMP280;7827;53.594;9.938;2023-09-30T07:23:12;31176.94;;;-135.29
15453;BMP280;7827;53.594;9.938;2023-09-30T07:25:46;31190.47;;;-135.29
15453;BMP280;7827;53.594;9.938;2023-09-30T07:28:15;30977.56;;;-135.29
15453;BMP280;7827;53.594;9.938;2023-09-30T07:30:44;31122.72;;;-135.29
15453;BMP280;7827;53.594;9.938;2023-09-30T07:33:13;31132.41;;;-135.29
15453;BMP280;7827;53.594;9.938;2023-09-30T07:35:42;31056.94;;;-135.29
15453;BMP280;7827;53.594;9.938;2023-09-30T07:38:11;30991.13;;;-135.29
15453;BMP280;7827;53.594;9.938;2023-09-30T07:40:39;30884.66;;;-135.29
15453;BMP280;7827;53.594;9.938;2023-09-30T07:43:07;30898.22;;;-135.29
15453;BMP280;7827;53.594;9.938;2023-09-30T07:45:36;30948.53;;;-135.29
15453;BMP280;7827;53.594;9.938;2023-09-30T07:48:06;30904.03;;;-135.29
15453;BMP280;7827;53.594;9.938;2023-09-30T07:50:36;30813.06;;;-135.29
15453;BMP280;7827;53.594;9.938;2023-09-30T07:53:06;30844.03;;;-135.29
15453;BMP280;7827;53.594;9.938;2023-09-30T07:55:34;30822.75;;;-135.29
15453;BMP280;7827;53.594;9.938;2023-09-30T07:58:03;30747.25;;;-135.29
15453;BMP280;7827;53.594;9.938;2023-09-30T08:00:31;30656.31;;;-135.29
15453;BMP280;7827;53.594;9.938;2023-09-30T08:03:01;30586.63;;;-135.29
15453;BMP280;7827;53.594;9.938;2023-09-30T08:05:30;30416.34;;;-135.29
15453;BMP280;7827;53.594;9.938;2023-09-30T08:07:58;30458.91;;;-135.29
15453;BMP280;7827;53.594;9.938;2023-09-30T08:10:30;30294.44;;;-135.29
15453;BMP280;7827;53.594;9.938;2023-09-30T08:12:59;30468.59;;;-135.29
15453;BMP280;7827;53.594;9.938;2023-09-30T08:15:29;30186.06;;;-135.29
15453;BMP280;7827;53.594;9.938;2023-09-30T08:17:58;30089.34;;;-135.29
15453;BMP280;7827;53.594;9.938;2023-09-30T08:20:27;30267.34;;;-135.29
15453;BMP280;7827;53.594;9.938;2023-09-30T08:22:55;30114.47;;;-135.29
15453;BMP280;7827;53.594;9.938;2023-09-30T08:25:23;30327.31;;;-135.29
15453;BMP280;7827;53.594;9.938;2023-09-30T08:27:53;30265.41;;;-135.29
15453;BMP280;7827;53.594;9.938;2023-09-30T08:30:22;30015.81;;;-135.29
15453;BMP280;7827;53.594;9.938;2023-09-30T08:32:50;30106.75;;;-135.29
15453;BMP280;7827;53.594;9.938;2023-09-30T08:35:19;29832.00;;;-135.29
15453;BMP280;7827;53.594;9.938;2023-09-30T08:37:47;29799.13;;;-135.29
15453;BMP280;7827;53.594;9.938;2023-09-30T08:40:20;29650.16;;;-135.29
15453;BMP280;7827;53.594;9.938;2023-09-30T08:42:53;29563.09;;;-135.29
15453;BMP280;7827;53.594;9.938;2023-09-30T08:45:22;29429.63;;;-135.29
15453;BMP280;7827;53.594;9.938;2023-09-30T08:47:51;29342.59;;;-135.29
15453;BMP280;7827;53.594;9.938;2023-09-30T08:50:21;29218.78;;;-135.29
15453;BMP280;7827;53.594;9.938;2023-09-30T08:52:50;29288.41;;;-135.29
15453;BMP280;7827;53.594;9.938;2023-09-30T08:55:20;29096.94;;;-135.29
15453;BMP280;7827;53.594;9.938;2023-09-30T08:57:50;29031.16;;;-135.29
15453;BMP280;7827;53.594;9.938;2023-09-30T09:00:20;28915.13;;;-135.29
15453;BMP280;7827;53.594;9.938;2023-09-30T09:02:50;29081.47;;;-135.29
15453;BMP280;7827;53.594;9.938;2023-09-30T09:05:18;28880.31;;;-135.29
15453;BMP280;7827;53.594;9.938;2023-09-30T09:07:46;28930.59;;;-135.29
15453;BMP280;7827;53.594;9.938;2023-09-30T09:10:15;28949.94;;;-135.29
15453;BMP280;7827;53.594;9.938;2023-09-30T09:12:54;28543.81;;;-135.29
15453;BMP280;7827;53.594;9.938;2023-09-30T09:15:26;28719.78;;;-135.29
15453;BMP280;7827;53.594;9.938;2023-09-30T09:17:56;28536.09;;;-135.29
15453;BMP280;7827;53.594;9.938;2023-09-30T09:20:25;28563.16;;;-135.29
15453;BMP280;7827;53.594;9.938;2023-09-30T09:22:55;28729.47;;;-135.29
15453;BMP280;7827;53.594;9.938;2023-09-30T09:25:27;28698.53;;;-135.29
15453;BMP280;7827;53.594;9.938;2023-09-30T09:27:55;28714.00;;;-135.29
15453;BMP280;7827;53.594;9.938;2023-09-30T09:30:27;28431.66;;;-135.29
15453;BMP280;7827;53.594;9.938;2023-09-30T09:33:00;28454.88;;;-135.29
15453;BMP280;7827;53.594;9.938;2023-09-30T09:35:31;28101.03;;;-135.29
15453;BMP280;7827;53.594;9.938;2023-09-30T09:38:02;28056.56;;;-135.29
15453;BMP280;7827;53.594;9.938;2023-09-30T09:40:33;28147.44;;;-135.29
15453;BMP280;7827;53.594;9.938;2023-09-30T09:43:04;28118.44;;;-135.29
15453;BMP280;7827;53.594;9.938;2023-09-30T09:45:36;27791.69;;;-135.29
15453;BMP280;7827;53.594;9.938;2023-09-30T09:48:06;27729.81;;;-135.29
15453;BMP280;7827;53.594;9.938;2023-09-30T09:50:35;27836.16;;;-135.29
15453;BMP280;7827;53.594;9.938;2023-09-30T09:53:05;27853.56;;;-135.29
15453;BMP280;7827;53.594;9.938;2023-09-30T09:55:42;27816.81;;;-135.29
15453;BMP280;7827;53.594;9.938;2023-09-30T09:58:11;27615.78;;;-135.29
15453;BMP280;7827;53.594;9.938;2023-09-30T10:00:42;27580.97;;;-135.29
15453;BMP280;7827;53.594;9.938;2023-09-30T10:03:12;27519.13;;;-135.29
15453;BMP280;7827;53.594;9.938;2023-09-30T10:05:40;27234.97;;;-135.29
15453;BMP280;7827;53.594;9.938;2023-09-30T10:08:14;27194.38;;;-135.29
15453;BMP280;7827;53.594;9.938;2023-09-30T10:10:44;27387.66;;;-135.29
15453;BMP280;7827;53.594;9.938;2023-09-30T10:13:50;26993.38;;;-135.29
15453;BMP280;7827;53.594;9.938;2023-09-30T10:16:50;27062.94;;;-135.29
15453;BMP280;7827;53.594;9.938;2023-09-30T10:19:21;27041.69;;;-135.29
15453;BMP280;7827;53.594;9.938;2023-09-30T10:22:24;26873.56;;;-135.29
15453;BMP280;7827;53.594;9.938;2023-09-30T10:24:55;27041.69;;;-135.29
15453;BMP280;7827;53.594;9.938;2023-09-30T10:27:32;26966.31;;;-135.29
15453;BMP280;7827;53.594;9.938;2023-09-30T10:30:11;27078.41;;;-135.29
15453;BMP280;7827;53.594;9.938;2023-09-30T10:33:10;27049.41;;;-135.29
15453;BMP280;7827;53.594;9.938;2023-09-30T10:35:45;27202.13;;;-135.29
15453;BMP280;7827;53.594;9.938;2023-09-30T10:38:39;26970.19;;;-135.29
15453;BMP280;7827;53.594;9.938;2023-09-30T10:41:09;26751.81;;;-135.29
15453;BMP280;7827;53.594;9.938;2023-09-30T10:43:41;26637.78;;;-135.29
15453;BMP280;7827;53.594;9.938;2023-09-30T10:46:31;26280.31;;;-135.29
15453;BMP280;7827;53.594;9.938;2023-09-30T10:49:31;26222.34;;;-135.29
15453;BMP280;7827;53.594;9.938;2023-09-30T10:52:00;26023.34;;;-135.29
15453;BMP280;7827;53.594;9.938;2023-09-30T10:54:31;25776.06;;;-135.29
15453;BMP280;7827;53.594;9.938;2023-09-30T10:57:00;26015.63;;;-135.29
15453;BMP280;7827;53.594;9.938;2023-09-30T10:59:31;25689.13;;;-135.29
15453;BMP280;7827;53.594;9.938;2023-09-30T11:02:02;25876.50;;;-135.29
15453;BMP280;7827;53.594;9.938;2023-09-30T11:04:46;26181.78;;;-135.29
15453;BMP280;7827;53.594;9.938;2023-09-30T11:07:22;26150.84;;;-135.29
15453;BMP280;7827;53.594;9.938;2023-09-30T11:09:53;25725.81;;;-135.29
15453;BMP280;7827;53.594;9.938;2023-09-30T11:12:22;25571.28;;;-135.29
15453;BMP280;7827;53.594;9.938;2023-09-30T11:14:59;25312.47;;;-135.29
15453;BMP280;7827;53.594;9.938;2023-09-30T11:17:28;25490.16;;;-135.29
15453;BMP280;7827;53.594;9.938;2023-09-30T11:19:58;25501.75;;;-135.29
15453;BMP280;7827;53.594;9.938;2023-09-30T11:22:27;25468.91;;;-135.29
15453;BMP280;7827;53.594;9.938;2023-09-30T11:24:56;25733.56;;;-135.29
15453;BMP280;7827;53.594;9.938;2023-09-30T11:27:24;25706.50;;;-135.29
15453;BMP280;7827;53.594;9.938;2023-09-30T11:29:54;25683.31;;;-135.29
15453;BMP280;7827;53.594;9.938;2023-09-30T11:32:24;25565.50;;;-135.29
15453;BMP280;7827;53.594;9.938;2023-09-30T11:34:54;25826.28;;;-135.29
15453;BMP280;7827;53.594;9.938;2023-09-30T11:37:31;25793.44;;;-135.29
15453;BMP280;7827;53.594;9.938;2023-09-30T11:40:10;26034.94;;;-135.29
15453;BMP280;7827;53.594;9.938;2023-09-30T11:42:40;25946.06;;;-135.29
15453;BMP280;7827;53.594;9.938;2023-09-30T11:45:19;26255.19;;;-135.29
15453;BMP280;7827;53.594;9.938;2023-09-30T11:47:49;26753.72;;;-135.29
15453;BMP280;7827;53.594;9.938;2023-09-30T11:50:18;26575.94;;;-135.29
15453;BMP280;7827;53.594;9.938;2023-09-30T11:52:47;26000.16;;;-135.29
15453;BMP280;7827;53.594;9.938;2023-09-30T11:55:16;25718.09;;;-135.29
15453;BMP280;7827;53.594;9.938;2023-09-30T11:57:47;25403.25;;;-135.29
15453;BMP280;7827;53.594;9.938;2023-09-30T12:00:17;25447.66;;;-135.29
15453;BMP280;7827;53.594;9.938;2023-09-30T12:02:45;25300.88;;;-135.29
15453;BMP280;7827;53.594;9.938;2023-09-30T12:05:14;25629.25;;;-135.29
15453;BMP280;7827;53.594;9.938;2023-09-30T12:07:43;25926.75;;;-135.29
15453;BMP280;7827;53.594;9.938;2023-09-30T12:10:13;26019.47;;;-135.29
15453;BMP280;7827;53.594;9.938;2023-09-30T12:12:42;26274.50;;;-135.29
15453;BMP280;7827;53.594;9.938;2023-09-30T12:15:11;26616.53;;;-135.29
15453;BMP280;7827;53.594;9.938;2023-09-30T12:17:40;26429.09;;;-135.29
15453;BMP280;7827;53.594;9.938;2023-09-30T12:20:10;26604.94;;;-135.29
15453;BMP280;7827;53.594;9.938;2023-09-30T12:22:41;26798.19;;;-135.29
15453;BMP280;7827;53.594;9.938;2023-09-30T12:25:09;26749.88;;;-135.29
15453;BMP280;7827;53.594;9.938;2023-09-30T12:27:39;26494.78;;;-135.29
15453;BMP280;7827;53.594;9.938;2023-09-30T12:30:08;26282.25;;;-135.29
15453;BMP280;7827;53.594;9.938;2023-09-30T12:32:37;26125.75;;;-135.29
15453;BMP280;7827;53.594;9.938;2023-09-30T12:35:07;26148.91;;;-135.29
15453;BMP280;7827;53.594;9.938;2023-09-30T12:37:37;26177.91;;;-135.29
15453;BMP280;7827;53.594;9.938;2023-09-30T12:40:07;26197.22;;;-135.29
15453;BMP280;7827;53.594;9.938;2023-09-30T12:42:40;26131.53;;;-135.29
15453;BMP280;7827;53.594;9.938;2023-09-30T12:45:10;26212.69;;;-135.29
15453;BMP280;7827;53.594;9.938;2023-09-30T12:47:38;26226.22;;;-135.29
15453;BMP280;7827;53.594;9.938;2023-09-30T12:50:07;26253.25;;;-135.29
15453;BMP280;7827;53.594;9.938;2023-09-30T12:52:39;26067.78;;;-135.29
15453;BMP280;7827;53.594;9.938;2023-09-30T12:55:08;25965.38;;;-135.29
15453;BMP280;7827;53.594;9.938;2023-09-30T12:57:38;25696.84;;;-135.29
15453;BMP280;7827;53.594;9.938;2023-09-30T13:00:09;25277.69;;;-135.29
15453;BMP280;7827;53.594;9.938;2023-09-30T13:02:37;24999.56;;;-135.29
15453;BMP280;7827;53.594;9.938;2023-09-30T13:05:07;25202.38;;;-135.29
15453;BMP280;7827;53.594;9.938;2023-09-30T13:07:35;25702.66;;;-135.29
15453;BMP280;7827;53.594;9.938;2023-09-30T13:10:04;25650.50;;;-135.29
15453;BMP280;7827;53.594;9.938;2023-09-30T13:12:35;25648.56;;;-135.29
15453;BMP280;7827;53.594;9.938;2023-09-30T13:15:06;25335.63;;;-135.29
15453;BMP280;7827;53.594;9.938;2023-09-30T13:17:35;25244.84;;;-135.29
15453;BMP280;7827;53.594;9.938;2023-09-30T13:20:05;25432.22;;;-135.29
15453;BMP280;7827;53.594;9.938;2023-09-30T13:22:36;25451.53;;;-135.29
15453;BMP280;7827;53.594;9.938;2023-09-30T13:25:06;25385.84;;;-135.29
15453;BMP280;7827;53.594;9.938;2023-09-30T13:27:35;25776.06;;;-135.29
15453;BMP280;7827;53.594;9.938;2023-09-30T13:30:07;25760.59;;;-135.29
15453;BMP280;7827;53.594;9.938;2023-09-30T13:32:36;25851.41;;;-135.29
15453;BMP280;7827;53.594;9.938;2023-09-30T13:35:05;25725.81;;;-135.29
15453;BMP280;7827;53.594;9.938;2023-09-30T13:37:34;25762.53;;;-135.29
15453;BMP280;7827;53.594;9.938;2023-09-30T13:40:05;25868.78;;;-135.29
15453;BMP280;7827;53.594;9.938;2023-09-30T13:42:35;25700.72;;;-135.29
15453;BMP280;7827;53.594;9.938;2023-09-30T13:45:07;26137.34;;;-135.29
15453;BMP280;7827;53.594;9.938;2023-09-30T13:47:35;26317.03;;;-135.29
15453;BMP280;7827;53.594;9.938;2023-09-30T13:50:05;26270.66;;;-135.29
15453;BMP280;7827;53.594;9.938;2023-09-30T13:52:35;26398.16;;;-135.29
15453;BMP280;7827;53.594;9.938;2023-09-30T13:55:04;26351.81;;;-135.29
15453;BMP280;7827;53.594;9.938;2023-09-30T13:57:33;26274.50;;;-135.29
15453;BMP280;7827;53.594;9.938;2023-09-30T14:00:02;26293.84;;;-135.29
15453;BMP280;7827;53.594;9.938;2023-09-30T14:02:34;26367.25;;;-135.29
15453;BMP280;7827;53.594;9.938;2023-09-30T14:05:05;26094.81;;;-135.29
15453;BMP280;7827;53.594;9.938;2023-09-30T14:07:35;26034.94;;;-135.29
15453;BMP280;7827;53.594;9.938;2023-09-30T14:10:04;25976.97;;;-135.29
15453;BMP280;7827;53.594;9.938;2023-09-30T14:12:33;26081.31;;;-135.29